sensor_id;sensor_type;location;lat;lon;timestamp;P1;durP1;ratioP1;P2;durP2;ratioP2
13085;SDS011;6609;49.882;8.664;2023-08-12T00:00:56;8.80;;;3.40;;
13085;SDS011;6609;49.882;8.664;2023-08-12T00:03:23;8.93;;;3.53;;
13085;SDS011;6609;49.882;8.664;2023-08-12T00:05:51;8.87;;;3.43;;
13085;SDS011;6609;49.882;8.664;2023-08-12T00:08:19;5.43;;;3.00;;
13085;SDS011;6609;49.882;8.664;2023-08-12T00:10:46;7.47;;;3.43;;
13085;SDS011;6609;49.882;8.664;2023-08-12T00:13:13;5.80;;;3.27;;
13085;SDS011;6609;49.882;8.664;2023-08-12T00:15:43;9.97;;;3.10;;
13085;SDS011;6609;49.882;8.664;2023-08-12T00:18:11;6.40;;;3.63;;
13085;SDS011;6609;49.882;8.664;2023-08-12T00:20:37;14.37;;;3.90;;
13085;SDS011;6609;49.882;8.664;2023-08-12T00:23:04;11.27;;;3.97;;
13085;SDS011;6609;49.882;8.664;2023-08-12T00:25:31;7.53;;;3.77;;
13085;SDS011;6609;49.882;8.664;2023-08-12T00:27:58;8.73;;;3.20;;
13085;SDS011;6609;49.882;8.664;2023-08-12T00:30:25;5.57;;;3.30;;
13085;SDS011;6609;49.882;8.664;2023-08-12T00:32:53;7.83;;;3.70;;
13085;SDS011;6609;49.882;8.664;2023-08-12T00:35:20;7.47;;;3.33;;
13085;SDS011;6609;49.882;8.664;2023-08-12T00:37:47;6.10;;;3.20;;
13085;SDS011;6609;49.882;8.664;2023-08-12T00:40:14;9.00;;;3.67;;
13085;SDS011;6609;49.882;8.664;2023-08-12T00:42:41;9.87;;;3.10;;
13085;SDS011;6609;49.882;8.664;2023-08-12T00:45:09;8.63;;;3.53;;
13085;SDS011;6609;49.882;8.664;2023-08-12T00:47:37;7.97;;;3.40;;
13085;SDS011;6609;49.882;8.664;2023-08-12T00:50:07;6.37;;;3.80;;
13085;SDS011;6609;49.882;8.664;2023-08-12T00:52:36;4.13;;;3.20;;
13085;SDS011;6609;49.882;8.664;2023-08-12T00:55:04;10.17;;;4.03;;
13085;SDS011;6609;49.882;8.664;2023-08-12T00:57:31;8.03;;;3.67;;
13085;SDS011;6609;49.882;8.664;2023-08-12T00:59:58;7.53;;;3.53;;
13085;SDS011;6609;49.882;8.664;2023-08-12T01:02:25;5.43;;;3.27;;
13085;SDS011;6609;49.882;8.664;2023-08-12T01:04:52;7.00;;;3.70;;
13085;SDS011;6609;49.882;8.664;2023-08-12T01:07:21;7.63;;;4.07;;
13085;SDS011;6609;49.882;8.664;2023-08-12T01:09:48;7.07;;;3.67;;
13085;SDS011;6609;49.882;8.664;2023-08-12T01:12:16;10.43;;;3.83;;
13085;SDS011;6609;49.882;8.664;2023-08-12T01:14:46;6.37;;;3.60;;
13085;SDS011;6609;49.882;8.664;2023-08-12T01:17:17;6.87;;;3.63;;
13085;SDS011;6609;49.882;8.664;2023-08-12T01:19:44;5.83;;;3.20;;
13085;SDS011;6609;49.882;8.664;2023-08-12T01:22:14;6.43;;;3.70;;
13085;SDS011;6609;49.882;8.664;2023-08-12T01:24:43;5.57;;;3.60;;
13085;SDS011;6609;49.882;8.664;2023-08-12T01:27:11;6.57;;;3.53;;
13085;SDS011;6609;49.882;8.664;2023-08-12T01:29:39;5.60;;;3.30;;
13085;SDS011;6609;49.882;8.664;2023-08-12T01:32:08;9.40;;;3.73;;
13085;SDS011;6609;49.882;8.664;2023-08-12T01:34:44;7.67;;;3.37;;
13085;SDS011;6609;49.882;8.664;2023-08-12T01:37:14;6.30;;;3.87;;
13085;SDS011;6609;49.882;8.664;2023-08-12T01:39:51;6.13;;;3.50;;
13085;SDS011;6609;49.882;8.664;2023-08-12T01:42:19;4.67;;;3.73;;
13085;SDS011;6609;49.882;8.664;2023-08-12T01:44:47;4.30;;;2.97;;
13085;SDS011;6609;49.882;8.664;2023-08-12T01:47:15;7.60;;;3.50;;
13085;SDS011;6609;49.882;8.664;2023-08-12T01:49:42;7.27;;;3.67;;
13085;SDS011;6609;49.882;8.664;2023-08-12T01:52:09;5.77;;;3.37;;
13085;SDS011;6609;49.882;8.664;2023-08-12T01:54:36;6.73;;;3.23;;
13085;SDS011;6609;49.882;8.664;2023-08-12T01:57:04;8.43;;;4.13;;
13085;SDS011;6609;49.882;8.664;2023-08-12T01:59:34;6.80;;;3.93;;
13085;SDS011;6609;49.882;8.664;2023-08-12T02:02:01;3.70;;;3.37;;
13085;SDS011;6609;49.882;8.664;2023-08-12T02:04:28;5.43;;;4.10;;
13085;SDS011;6609;49.882;8.664;2023-08-12T02:06:56;9.20;;;3.70;;
13085;SDS011;6609;49.882;8.664;2023-08-12T02:09:23;10.87;;;3.37;;
13085;SDS011;6609;49.882;8.664;2023-08-12T02:11:50;6.53;;;3.60;;
13085;SDS011;6609;49.882;8.664;2023-08-12T02:14:18;6.97;;;3.67;;
13085;SDS011;6609;49.882;8.664;2023-08-12T02:16:44;7.93;;;3.80;;
13085;SDS011;6609;49.882;8.664;2023-08-12T02:19:12;4.17;;;3.30;;
13085;SDS011;6609;49.882;8.664;2023-08-12T02:21:38;9.77;;;3.97;;
13085;SDS011;6609;49.882;8.664;2023-08-12T02:24:06;8.20;;;4.27;;
13085;SDS011;6609;49.882;8.664;2023-08-12T02:26:33;4.30;;;3.50;;
13085;SDS011;6609;49.882;8.664;2023-08-12T02:29:00;6.23;;;3.17;;
13085;SDS011;6609;49.882;8.664;2023-08-12T02:31:28;6.50;;;3.30;;
13085;SDS011;6609;49.882;8.664;2023-08-12T02:33:55;6.43;;;3.67;;
13085;SDS011;6609;49.882;8.664;2023-08-12T02:36:22;8.73;;;3.73;;
13085;SDS011;6609;49.882;8.664;2023-08-12T02:38:50;4.97;;;3.47;;
13085;SDS011;6609;49.882;8.664;2023-08-12T02:41:17;9.50;;;3.83;;
13085;SDS011;6609;49.882;8.664;2023-08-12T02:43:44;6.70;;;3.60;;
13085;SDS011;6609;49.882;8.664;2023-08-12T02:46:11;5.63;;;3.40;;
13085;SDS011;6609;49.882;8.664;2023-08-12T02:48:41;10.30;;;4.40;;
13085;SDS011;6609;49.882;8.664;2023-08-12T02:51:08;6.70;;;4.33;;
13085;SDS011;6609;49.882;8.664;2023-08-12T02:53:36;10.17;;;4.50;;
13085;SDS011;6609;49.882;8.664;2023-08-12T02:56:03;13.17;;;5.10;;
13085;SDS011;6609;49.882;8.664;2023-08-12T02:58:29;8.80;;;4.97;;
13085;SDS011;6609;49.882;8.664;2023-08-12T03:00:56;10.53;;;6.20;;
13085;SDS011;6609;49.882;8.664;2023-08-12T03:03:24;8.40;;;6.03;;
13085;SDS011;6609;49.882;8.664;2023-08-12T03:05:52;9.73;;;6.13;;
13085;SDS011;6609;49.882;8.664;2023-08-12T03:08:19;10.07;;;6.70;;
13085;SDS011;6609;49.882;8.664;2023-08-12T03:10:46;9.60;;;6.50;;
13085;SDS011;6609;49.882;8.664;2023-08-12T03:13:13;10.77;;;7.53;;
13085;SDS011;6609;49.882;8.664;2023-08-12T03:15:40;12.23;;;7.33;;
13085;SDS011;6609;49.882;8.664;2023-08-12T03:18:07;8.50;;;7.33;;
13085;SDS011;6609;49.882;8.664;2023-08-12T03:20:34;9.50;;;6.77;;
13085;SDS011;6609;49.882;8.664;2023-08-12T03:23:03;11.73;;;8.10;;
13085;SDS011;6609;49.882;8.664;2023-08-12T03:25:30;11.60;;;7.33;;
13085;SDS011;6609;49.882;8.664;2023-08-12T03:27:57;11.20;;;7.97;;
13085;SDS011;6609;49.882;8.664;2023-08-12T03:30:23;12.10;;;8.20;;
13085;SDS011;6609;49.882;8.664;2023-08-12T03:32:51;14.70;;;8.50;;
13085;SDS011;6609;49.882;8.664;2023-08-12T03:35:18;14.30;;;8.57;;
13085;SDS011;6609;49.882;8.664;2023-08-12T03:37:45;14.97;;;9.17;;
13085;SDS011;6609;49.882;8.664;2023-08-12T03:40:13;14.43;;;8.63;;
13085;SDS011;6609;49.882;8.664;2023-08-12T03:42:40;12.30;;;8.20;;
13085;SDS011;6609;49.882;8.664;2023-08-12T03:45:07;11.73;;;8.30;;
13085;SDS011;6609;49.882;8.664;2023-08-12T03:47:34;13.37;;;8.90;;
13085;SDS011;6609;49.882;8.664;2023-08-12T03:50:01;10.73;;;7.33;;
13085;SDS011;6609;49.882;8.664;2023-08-12T03:52:28;12.40;;;8.27;;
13085;SDS011;6609;49.882;8.664;2023-08-12T03:54:55;13.67;;;8.70;;
13085;SDS011;6609;49.882;8.664;2023-08-12T03:57:23;15.03;;;8.97;;
13085;SDS011;6609;49.882;8.664;2023-08-12T03:59:50;12.23;;;8.17;;
13085;SDS011;6609;49.882;8.664;2023-08-12T04:02:17;11.17;;;8.17;;
13085;SDS011;6609;49.882;8.664;2023-08-12T04:04:44;13.10;;;8.60;;
13085;SDS011;6609;49.882;8.664;2023-08-12T04:07:11;17.17;;;8.93;;
13085;SDS011;6609;49.882;8.664;2023-08-12T04:09:37;12.00;;;8.37;;
13085;SDS011;6609;49.882;8.664;2023-08-12T04:12:05;17.23;;;8.57;;
13085;SDS011;6609;49.882;8.664;2023-08-12T04:14:33;13.53;;;8.60;;
13085;SDS011;6609;49.882;8.664;2023-08-12T04:17:00;16.60;;;8.60;;
13085;SDS011;6609;49.882;8.664;2023-08-12T04:19:27;11.73;;;8.73;;
13085;SDS011;6609;49.882;8.664;2023-08-12T04:21:53;16.77;;;8.90;;
13085;SDS011;6609;49.882;8.664;2023-08-12T04:24:20;16.60;;;9.10;;
13085;SDS011;6609;49.882;8.664;2023-08-12T04:26:48;13.00;;;9.13;;
13085;SDS011;6609;49.882;8.664;2023-08-12T04:29:15;17.70;;;8.90;;
13085;SDS011;6609;49.882;8.664;2023-08-12T04:31:43;15.50;;;8.47;;
13085;SDS011;6609;49.882;8.664;2023-08-12T04:34:10;18.10;;;8.63;;
13085;SDS011;6609;49.882;8.664;2023-08-12T04:36:36;12.33;;;8.10;;
13085;SDS011;6609;49.882;8.664;2023-08-12T04:39:03;17.93;;;14.87;;
13085;SDS011;6609;49.882;8.664;2023-08-12T04:41:31;16.43;;;10.63;;
13085;SDS011;6609;49.882;8.664;2023-08-12T04:43:58;15.80;;;8.77;;
13085;SDS011;6609;49.882;8.664;2023-08-12T04:46:25;14.60;;;8.43;;
13085;SDS011;6609;49.882;8.664;2023-08-12T04:48:53;11.00;;;8.00;;
13085;SDS011;6609;49.882;8.664;2023-08-12T04:51:20;12.37;;;8.10;;
13085;SDS011;6609;49.882;8.664;2023-08-12T04:53:47;13.07;;;7.80;;
13085;SDS011;6609;49.882;8.664;2023-08-12T04:56:14;14.80;;;8.47;;
13085;SDS011;6609;49.882;8.664;2023-08-12T04:58:41;11.10;;;8.83;;
13085;SDS011;6609;49.882;8.664;2023-08-12T05:01:08;10.67;;;8.03;;
13085;SDS011;6609;49.882;8.664;2023-08-12T05:03:34;11.60;;;8.33;;
13085;SDS011;6609;49.882;8.664;2023-08-12T05:06:03;12.50;;;8.83;;
13085;SDS011;6609;49.882;8.664;2023-08-12T05:08:30;14.87;;;7.73;;
13085;SDS011;6609;49.882;8.664;2023-08-12T05:10:58;16.27;;;9.00;;
13085;SDS011;6609;49.882;8.664;2023-08-12T05:13:25;11.23;;;7.83;;
13085;SDS011;6609;49.882;8.664;2023-08-12T05:15:53;11.07;;;7.63;;
13085;SDS011;6609;49.882;8.664;2023-08-12T05:18:21;10.43;;;7.30;;
13085;SDS011;6609;49.882;8.664;2023-08-12T05:20:49;9.27;;;7.27;;
13085;SDS011;6609;49.882;8.664;2023-08-12T05:23:19;10.10;;;7.93;;
13085;SDS011;6609;49.882;8.664;2023-08-12T05:25:46;12.60;;;7.43;;
13085;SDS011;6609;49.882;8.664;2023-08-12T05:28:13;9.53;;;7.47;;
13085;SDS011;6609;49.882;8.664;2023-08-12T05:30:41;10.33;;;8.07;;
13085;SDS011;6609;49.882;8.664;2023-08-12T05:33:08;12.80;;;8.43;;
13085;SDS011;6609;49.882;8.664;2023-08-12T05:35:34;11.93;;;8.00;;
13085;SDS011;6609;49.882;8.664;2023-08-12T05:38:01;15.23;;;7.67;;
13085;SDS011;6609;49.882;8.664;2023-08-12T05:40:30;15.83;;;8.83;;
13085;SDS011;6609;49.882;8.664;2023-08-12T05:42:57;11.57;;;7.80;;
13085;SDS011;6609;49.882;8.664;2023-08-12T05:45:24;13.70;;;8.53;;
13085;SDS011;6609;49.882;8.664;2023-08-12T05:47:51;12.07;;;8.07;;
13085;SDS011;6609;49.882;8.664;2023-08-12T05:50:18;11.23;;;7.47;;
13085;SDS011;6609;49.882;8.664;2023-08-12T05:52:45;10.80;;;8.13;;
13085;SDS011;6609;49.882;8.664;2023-08-12T05:55:12;11.73;;;7.57;;
13085;SDS011;6609;49.882;8.664;2023-08-12T05:57:40;9.43;;;7.40;;
13085;SDS011;6609;49.882;8.664;2023-08-12T06:00:07;9.47;;;6.60;;
13085;SDS011;6609;49.882;8.664;2023-08-12T06:02:34;11.27;;;7.47;;
13085;SDS011;6609;49.882;8.664;2023-08-12T06:05:01;8.03;;;6.73;;
13085;SDS011;6609;49.882;8.664;2023-08-12T06:07:28;12.30;;;8.00;;
13085;SDS011;6609;49.882;8.664;2023-08-12T06:09:55;11.20;;;7.13;;
13085;SDS011;6609;49.882;8.664;2023-08-12T06:12:22;9.13;;;7.03;;
13085;SDS011;6609;49.882;8.664;2023-08-12T06:14:50;11.10;;;7.40;;
13085;SDS011;6609;49.882;8.664;2023-08-12T06:17:17;9.07;;;7.00;;
13085;SDS011;6609;49.882;8.664;2023-08-12T06:19:44;7.70;;;6.43;;
13085;SDS011;6609;49.882;8.664;2023-08-12T06:22:11;12.30;;;6.30;;
13085;SDS011;6609;49.882;8.664;2023-08-12T06:24:38;9.87;;;6.37;;
13085;SDS011;6609;49.882;8.664;2023-08-12T06:27:05;9.63;;;6.60;;
13085;SDS011;6609;49.882;8.664;2023-08-12T06:29:32;7.13;;;6.00;;
13085;SDS011;6609;49.882;8.664;2023-08-12T06:32:00;7.27;;;6.00;;
13085;SDS011;6609;49.882;8.664;2023-08-12T06:34:27;8.73;;;6.53;;
13085;SDS011;6609;49.882;8.664;2023-08-12T06:36:54;9.40;;;6.87;;
13085;SDS011;6609;49.882;8.664;2023-08-12T06:39:21;10.83;;;6.97;;
13085;SDS011;6609;49.882;8.664;2023-08-12T06:41:48;9.77;;;7.20;;
13085;SDS011;6609;49.882;8.664;2023-08-12T06:44:17;9.87;;;6.77;;
13085;SDS011;6609;49.882;8.664;2023-08-12T06:46:44;7.93;;;6.40;;
13085;SDS011;6609;49.882;8.664;2023-08-12T06:49:12;11.07;;;6.20;;
13085;SDS011;6609;49.882;8.664;2023-08-12T06:51:39;7.07;;;5.53;;
13085;SDS011;6609;49.882;8.664;2023-08-12T06:54:06;9.70;;;6.20;;
13085;SDS011;6609;49.882;8.664;2023-08-12T06:56:34;9.97;;;6.13;;
13085;SDS011;6609;49.882;8.664;2023-08-12T06:59:00;8.33;;;6.23;;
13085;SDS011;6609;49.882;8.664;2023-08-12T07:01:27;7.60;;;6.40;;
13085;SDS011;6609;49.882;8.664;2023-08-12T07:03:54;10.33;;;6.73;;
13085;SDS011;6609;49.882;8.664;2023-08-12T07:06:23;8.33;;;5.63;;
13085;SDS011;6609;49.882;8.664;2023-08-12T07:08:50;11.60;;;6.30;;
13085;SDS011;6609;49.882;8.664;2023-08-12T07:11:16;7.43;;;5.50;;
13085;SDS011;6609;49.882;8.664;2023-08-12T07:13:44;7.87;;;6.00;;
13085;SDS011;6609;49.882;8.664;2023-08-12T07:16:11;7.43;;;5.53;;
13085;SDS011;6609;49.882;8.664;2023-08-12T07:18:39;9.53;;;5.63;;
13085;SDS011;6609;49.882;8.664;2023-08-12T07:21:06;9.03;;;6.00;;
13085;SDS011;6609;49.882;8.664;2023-08-12T07:23:34;8.33;;;5.37;;
13085;SDS011;6609;49.882;8.664;2023-08-12T07:26:01;7.30;;;4.77;;
13085;SDS011;6609;49.882;8.664;2023-08-12T07:28:28;7.00;;;5.00;;
13085;SDS011;6609;49.882;8.664;2023-08-12T07:30:55;7.93;;;5.47;;
13085;SDS011;6609;49.882;8.664;2023-08-12T07:33:22;5.97;;;5.10;;
13085;SDS011;6609;49.882;8.664;2023-08-12T07:35:49;9.10;;;5.63;;
13085;SDS011;6609;49.882;8.664;2023-08-12T07:38:16;7.07;;;5.30;;
13085;SDS011;6609;49.882;8.664;2023-08-12T07:40:45;6.17;;;5.17;;
13085;SDS011;6609;49.882;8.664;2023-08-12T07:43:12;8.93;;;5.77;;
13085;SDS011;6609;49.882;8.664;2023-08-12T07:45:38;5.40;;;4.67;;
13085;SDS011;6609;49.882;8.664;2023-08-12T07:48:05;6.97;;;4.70;;
13085;SDS011;6609;49.882;8.664;2023-08-12T07:50:32;6.10;;;4.57;;
13085;SDS011;6609;49.882;8.664;2023-08-12T07:52:59;5.80;;;4.77;;
13085;SDS011;6609;49.882;8.664;2023-08-12T07:55:26;7.00;;;5.10;;
13085;SDS011;6609;49.882;8.664;2023-08-12T07:57:56;7.93;;;5.60;;
13085;SDS011;6609;49.882;8.664;2023-08-12T08:00:22;7.63;;;4.77;;
13085;SDS011;6609;49.882;8.664;2023-08-12T08:02:49;10.50;;;6.00;;
13085;SDS011;6609;49.882;8.664;2023-08-12T08:05:16;9.33;;;5.80;;
13085;SDS011;6609;49.882;8.664;2023-08-12T08:07:44;10.10;;;6.17;;
13085;SDS011;6609;49.882;8.664;2023-08-12T08:10:11;12.30;;;6.80;;
13085;SDS011;6609;49.882;8.664;2023-08-12T08:12:37;10.93;;;5.90;;
13085;SDS011;6609;49.882;8.664;2023-08-12T08:15:06;12.27;;;6.80;;
13085;SDS011;6609;49.882;8.664;2023-08-12T08:17:33;11.20;;;6.23;;
13085;SDS011;6609;49.882;8.664;2023-08-12T08:20:00;8.77;;;6.47;;
13085;SDS011;6609;49.882;8.664;2023-08-12T08:22:28;11.10;;;6.80;;
13085;SDS011;6609;49.882;8.664;2023-08-12T08:24:54;7.70;;;5.70;;
13085;SDS011;6609;49.882;8.664;2023-08-12T08:27:21;11.00;;;6.70;;
13085;SDS011;6609;49.882;8.664;2023-08-12T08:29:49;8.93;;;5.80;;
13085;SDS011;6609;49.882;8.664;2023-08-12T08:32:17;9.93;;;6.70;;
13085;SDS011;6609;49.882;8.664;2023-08-12T08:34:44;10.03;;;7.20;;
13085;SDS011;6609;49.882;8.664;2023-08-12T08:37:10;13.00;;;6.70;;
13085;SDS011;6609;49.882;8.664;2023-08-12T08:39:37;11.23;;;6.97;;
13085;SDS011;6609;49.882;8.664;2023-08-12T08:42:04;8.23;;;6.40;;
13085;SDS011;6609;49.882;8.664;2023-08-12T08:44:32;12.60;;;7.77;;
13085;SDS011;6609;49.882;8.664;2023-08-12T08:46:59;11.67;;;7.30;;
13085;SDS011;6609;49.882;8.664;2023-08-12T08:49:29;13.57;;;7.97;;
13085;SDS011;6609;49.882;8.664;2023-08-12T08:51:57;9.27;;;7.30;;
13085;SDS011;6609;49.882;8.664;2023-08-12T08:54:25;11.70;;;7.70;;
13085;SDS011;6609;49.882;8.664;2023-08-12T08:56:53;13.77;;;7.77;;
13085;SDS011;6609;49.882;8.664;2023-08-12T08:59:20;9.87;;;7.43;;
13085;SDS011;6609;49.882;8.664;2023-08-12T09:01:47;9.17;;;6.70;;
13085;SDS011;6609;49.882;8.664;2023-08-12T09:04:17;8.33;;;6.60;;
13085;SDS011;6609;49.882;8.664;2023-08-12T09:06:48;13.80;;;7.23;;
13085;SDS011;6609;49.882;8.664;2023-08-12T09:09:17;9.70;;;7.20;;
13085;SDS011;6609;49.882;8.664;2023-08-12T09:11:46;9.43;;;6.07;;
13085;SDS011;6609;49.882;8.664;2023-08-12T09:14:14;12.73;;;6.90;;
13085;SDS011;6609;49.882;8.664;2023-08-12T09:16:41;8.87;;;6.23;;
13085;SDS011;6609;49.882;8.664;2023-08-12T09:19:08;12.80;;;6.93;;
13085;SDS011;6609;49.882;8.664;2023-08-12T09:21:36;6.17;;;5.33;;
13085;SDS011;6609;49.882;8.664;2023-08-12T09:24:04;8.50;;;5.53;;
13085;SDS011;6609;49.882;8.664;2023-08-12T09:26:33;8.33;;;6.20;;
13085;SDS011;6609;49.882;8.664;2023-08-12T09:29:00;9.70;;;6.50;;
13085;SDS011;6609;49.882;8.664;2023-08-12T09:31:28;7.23;;;6.37;;
13085;SDS011;6609;49.882;8.664;2023-08-12T09:33:57;10.73;;;6.17;;
13085;SDS011;6609;49.882;8.664;2023-08-12T09:36:27;6.17;;;5.40;;
13085;SDS011;6609;49.882;8.664;2023-08-12T09:38:54;7.37;;;5.27;;
13085;SDS011;6609;49.882;8.664;2023-08-12T09:41:23;7.83;;;4.97;;
13085;SDS011;6609;49.882;8.664;2023-08-12T09:43:51;6.27;;;4.90;;
13085;SDS011;6609;49.882;8.664;2023-08-12T09:46:20;8.23;;;5.40;;
13085;SDS011;6609;49.882;8.664;2023-08-12T09:48:49;8.83;;;4.80;;
13085;SDS011;6609;49.882;8.664;2023-08-12T09:51:16;7.03;;;5.20;;
13085;SDS011;6609;49.882;8.664;2023-08-12T09:53:43;9.20;;;5.83;;
13085;SDS011;6609;49.882;8.664;2023-08-12T09:56:11;7.00;;;4.43;;
13085;SDS011;6609;49.882;8.664;2023-08-12T09:58:40;5.77;;;4.50;;
13085;SDS011;6609;49.882;8.664;2023-08-12T10:01:09;6.33;;;4.37;;
13085;SDS011;6609;49.882;8.664;2023-08-12T10:03:38;6.77;;;4.63;;
13085;SDS011;6609;49.882;8.664;2023-08-12T10:06:06;7.83;;;5.37;;
13085;SDS011;6609;49.882;8.664;2023-08-12T10:08:33;5.93;;;4.03;;
13085;SDS011;6609;49.882;8.664;2023-08-12T10:11:01;5.93;;;4.13;;
13085;SDS011;6609;49.882;8.664;2023-08-12T10:13:28;7.07;;;4.03;;
13085;SDS011;6609;49.882;8.664;2023-08-12T10:15:56;6.63;;;4.50;;
13085;SDS011;6609;49.882;8.664;2023-08-12T10:18:23;7.47;;;4.27;;
13085;SDS011;6609;49.882;8.664;2023-08-12T10:20:50;6.03;;;4.00;;
13085;SDS011;6609;49.882;8.664;2023-08-12T10:23:19;6.87;;;4.80;;
13085;SDS011;6609;49.882;8.664;2023-08-12T10:25:48;7.77;;;5.33;;
13085;SDS011;6609;49.882;8.664;2023-08-12T10:28:18;9.40;;;4.50;;
13085;SDS011;6609;49.882;8.664;2023-08-12T10:30:45;9.73;;;6.10;;
13085;SDS011;6609;49.882;8.664;2023-08-12T10:33:14;12.73;;;5.97;;
13085;SDS011;6609;49.882;8.664;2023-08-12T10:35:43;10.33;;;5.43;;
13085;SDS011;6609;49.882;8.664;2023-08-12T10:38:11;12.10;;;6.43;;
13085;SDS011;6609;49.882;8.664;2023-08-12T10:40:40;7.93;;;6.07;;
13085;SDS011;6609;49.882;8.664;2023-08-12T10:43:07;14.47;;;6.73;;
13085;SDS011;6609;49.882;8.664;2023-08-12T10:45:41;7.10;;;5.40;;
13085;SDS011;6609;49.882;8.664;2023-08-12T10:48:17;8.13;;;5.43;;
13085;SDS011;6609;49.882;8.664;2023-08-12T10:50:46;8.97;;;6.03;;
13085;SDS011;6609;49.882;8.664;2023-08-12T10:53:25;8.70;;;5.93;;
13085;SDS011;6609;49.882;8.664;2023-08-12T10:55:55;10.90;;;6.13;;
13085;SDS011;6609;49.882;8.664;2023-08-12T10:58:26;9.23;;;6.37;;
13085;SDS011;6609;49.882;8.664;2023-08-12T11:00:53;10.20;;;6.33;;
13085;SDS011;6609;49.882;8.664;2023-08-12T11:03:22;10.73;;;5.70;;
13085;SDS011;6609;49.882;8.664;2023-08-12T11:05:49;8.43;;;4.87;;
13085;SDS011;6609;49.882;8.664;2023-08-12T11:08:23;10.37;;;4.60;;
13085;SDS011;6609;49.882;8.664;2023-08-12T11:10:50;5.80;;;3.60;;
13085;SDS011;6609;49.882;8.664;2023-08-12T11:13:18;7.23;;;3.70;;
13085;SDS011;6609;49.882;8.664;2023-08-12T11:15:47;5.03;;;2.83;;
13085;SDS011;6609;49.882;8.664;2023-08-12T11:18:15;6.23;;;2.93;;
13085;SDS011;6609;49.882;8.664;2023-08-12T11:20:45;4.70;;;2.70;;
13085;SDS011;6609;49.882;8.664;2023-08-12T11:23:13;6.10;;;2.87;;
13085;SDS011;6609;49.882;8.664;2023-08-12T11:25:40;7.33;;;3.60;;
13085;SDS011;6609;49.882;8.664;2023-08-12T11:28:07;5.10;;;2.63;;
13085;SDS011;6609;49.882;8.664;2023-08-12T11:30:34;7.33;;;3.37;;
13085;SDS011;6609;49.882;8.664;2023-08-12T11:33:02;6.23;;;3.03;;
13085;SDS011;6609;49.882;8.664;2023-08-12T11:35:29;7.73;;;3.90;;
13085;SDS011;6609;49.882;8.664;2023-08-12T11:37:58;8.70;;;3.73;;
13085;SDS011;6609;49.882;8.664;2023-08-12T11:40:25;5.50;;;2.83;;
13085;SDS011;6609;49.882;8.664;2023-08-12T11:42:53;5.83;;;2.50;;
13085;SDS011;6609;49.882;8.664;2023-08-12T11:45:21;7.80;;;3.43;;
13085;SDS011;6609;49.882;8.664;2023-08-12T11:47:48;4.97;;;3.37;;
13085;SDS011;6609;49.882;8.664;2023-08-12T11:50:18;3.80;;;2.63;;
13085;SDS011;6609;49.882;8.664;2023-08-12T11:52:45;7.20;;;3.30;;
13085;SDS011;6609;49.882;8.664;2023-08-12T11:55:14;5.70;;;3.00;;
13085;SDS011;6609;49.882;8.664;2023-08-12T11:57:42;7.43;;;3.37;;
13085;SDS011;6609;49.882;8.664;2023-08-12T12:00:10;6.97;;;3.33;;
13085;SDS011;6609;49.882;8.664;2023-08-12T12:02:40;5.83;;;3.17;;
13085;SDS011;6609;49.882;8.664;2023-08-12T12:05:07;7.93;;;3.50;;
13085;SDS011;6609;49.882;8.664;2023-08-12T12:07:35;5.40;;;3.23;;
13085;SDS011;6609;49.882;8.664;2023-08-12T12:10:03;4.97;;;3.57;;
13085;SDS011;6609;49.882;8.664;2023-08-12T12:12:34;5.17;;;3.17;;
13085;SDS011;6609;49.882;8.664;2023-08-12T12:15:01;4.70;;;3.30;;
13085;SDS011;6609;49.882;8.664;2023-08-12T12:17:28;4.90;;;3.77;;
13085;SDS011;6609;49.882;8.664;2023-08-12T12:19:56;6.87;;;4.30;;
13085;SDS011;6609;49.882;8.664;2023-08-12T12:22:26;5.50;;;3.83;;
13085;SDS011;6609;49.882;8.664;2023-08-12T12:24:53;7.17;;;4.27;;
13085;SDS011;6609;49.882;8.664;2023-08-12T12:27:20;5.40;;;3.60;;
13085;SDS011;6609;49.882;8.664;2023-08-12T12:29:49;5.43;;;3.80;;
13085;SDS011;6609;49.882;8.664;2023-08-12T12:32:17;7.90;;;4.23;;
13085;SDS011;6609;49.882;8.664;2023-08-12T12:34:44;5.07;;;3.60;;
13085;SDS011;6609;49.882;8.664;2023-08-12T12:37:11;6.57;;;4.00;;
13085;SDS011;6609;49.882;8.664;2023-08-12T12:39:39;7.10;;;3.93;;
13085;SDS011;6609;49.882;8.664;2023-08-12T12:42:06;6.43;;;3.97;;
13085;SDS011;6609;49.882;8.664;2023-08-12T12:44:33;5.93;;;3.73;;
13085;SDS011;6609;49.882;8.664;2023-08-12T12:47:02;7.40;;;3.73;;
13085;SDS011;6609;49.882;8.664;2023-08-12T12:49:28;5.43;;;3.83;;
13085;SDS011;6609;49.882;8.664;2023-08-12T12:51:55;5.33;;;4.03;;
13085;SDS011;6609;49.882;8.664;2023-08-12T12:54:22;5.70;;;3.77;;
13085;SDS011;6609;49.882;8.664;2023-08-12T12:56:50;6.67;;;4.07;;
13085;SDS011;6609;49.882;8.664;2023-08-12T12:59:16;6.90;;;3.70;;
13085;SDS011;6609;49.882;8.664;2023-08-12T13:01:44;7.00;;;4.30;;
13085;SDS011;6609;49.882;8.664;2023-08-12T13:04:12;7.87;;;4.20;;
13085;SDS011;6609;49.882;8.664;2023-08-12T13:06:39;9.70;;;3.97;;
13085;SDS011;6609;49.882;8.664;2023-08-12T13:09:06;5.27;;;3.20;;
13085;SDS011;6609;49.882;8.664;2023-08-12T13:11:33;5.43;;;3.33;;
13085;SDS011;6609;49.882;8.664;2023-08-12T13:14:00;5.67;;;2.37;;
13085;SDS011;6609;49.882;8.664;2023-08-12T13:16:27;4.47;;;2.70;;
13085;SDS011;6609;49.882;8.664;2023-08-12T13:18:54;3.97;;;2.63;;
13085;SDS011;6609;49.882;8.664;2023-08-12T13:21:24;4.23;;;2.63;;
13085;SDS011;6609;49.882;8.664;2023-08-12T13:23:51;3.90;;;2.10;;
13085;SDS011;6609;49.882;8.664;2023-08-12T13:26:18;4.90;;;2.60;;
13085;SDS011;6609;49.882;8.664;2023-08-12T13:28:45;4.43;;;2.47;;
13085;SDS011;6609;49.882;8.664;2023-08-12T13:31:12;3.37;;;1.93;;
13085;SDS011;6609;49.882;8.664;2023-08-12T13:33:40;4.63;;;2.50;;
13085;SDS011;6609;49.882;8.664;2023-08-12T13:36:06;4.87;;;2.70;;
13085;SDS011;6609;49.882;8.664;2023-08-12T13:38:35;4.07;;;2.47;;
13085;SDS011;6609;49.882;8.664;2023-08-12T13:41:01;5.90;;;2.77;;
13085;SDS011;6609;49.882;8.664;2023-08-12T13:43:28;5.77;;;3.00;;
13085;SDS011;6609;49.882;8.664;2023-08-12T13:45:56;2.63;;;1.83;;
13085;SDS011;6609;49.882;8.664;2023-08-12T13:48:23;5.10;;;2.13;;
13085;SDS011;6609;49.882;8.664;2023-08-12T13:50:50;4.53;;;2.50;;
13085;SDS011;6609;49.882;8.664;2023-08-12T13:53:17;2.93;;;2.37;;
13085;SDS011;6609;49.882;8.664;2023-08-12T13:55:45;3.77;;;2.40;;
13085;SDS011;6609;49.882;8.664;2023-08-12T13:58:12;5.17;;;2.47;;
13085;SDS011;6609;49.882;8.664;2023-08-12T14:00:39;4.17;;;2.43;;
13085;SDS011;6609;49.882;8.664;2023-08-12T14:03:06;5.73;;;2.10;;
13085;SDS011;6609;49.882;8.664;2023-08-12T14:05:33;4.33;;;2.40;;
13085;SDS011;6609;49.882;8.664;2023-08-12T14:08:00;3.10;;;1.93;;
13085;SDS011;6609;49.882;8.664;2023-08-12T14:10:27;5.43;;;2.13;;
13085;SDS011;6609;49.882;8.664;2023-08-12T14:12:55;4.00;;;2.20;;
13085;SDS011;6609;49.882;8.664;2023-08-12T14:15:22;2.73;;;2.17;;
13085;SDS011;6609;49.882;8.664;2023-08-12T14:17:49;3.70;;;2.27;;
13085;SDS011;6609;49.882;8.664;2023-08-12T14:20:16;3.63;;;2.17;;
13085;SDS011;6609;49.882;8.664;2023-08-12T14:22:43;3.30;;;1.97;;
13085;SDS011;6609;49.882;8.664;2023-08-12T14:25:09;3.83;;;2.13;;
13085;SDS011;6609;49.882;8.664;2023-08-12T14:27:37;4.80;;;2.60;;
13085;SDS011;6609;49.882;8.664;2023-08-12T14:30:06;2.43;;;1.97;;
13085;SDS011;6609;49.882;8.664;2023-08-12T14:32:33;3.23;;;2.13;;
13085;SDS011;6609;49.882;8.664;2023-08-12T14:35:00;3.57;;;1.80;;
13085;SDS011;6609;49.882;8.664;2023-08-12T14:37:27;3.63;;;2.00;;
13085;SDS011;6609;49.882;8.664;2023-08-12T14:39:54;1.93;;;1.60;;
13085;SDS011;6609;49.882;8.664;2023-08-12T14:42:21;6.07;;;1.80;;
13085;SDS011;6609;49.882;8.664;2023-08-12T14:44:48;4.33;;;2.13;;
13085;SDS011;6609;49.882;8.664;2023-08-12T14:47:16;2.53;;;1.80;;
13085;SDS011;6609;49.882;8.664;2023-08-12T14:49:44;3.00;;;1.90;;
13085;SDS011;6609;49.882;8.664;2023-08-12T14:52:15;5.07;;;2.40;;
13085;SDS011;6609;49.882;8.664;2023-08-12T14:54:42;5.43;;;2.50;;
13085;SDS011;6609;49.882;8.664;2023-08-12T14:57:09;5.23;;;2.17;;
13085;SDS011;6609;49.882;8.664;2023-08-12T14:59:36;2.80;;;1.70;;